createdAt,value
2023-04-10T00:00:10.567Z,83.46
2023-04-10T00:02:40.162Z,83.71
2023-04-10T00:05:07.450Z,82.92
2023-04-10T00:07:34.187Z,81.81
2023-04-10T00:10:00.768Z,81.50
2023-04-10T00:12:27.394Z,81.98
2023-04-10T00:14:53.887Z,83.68
2023-04-10T00:17:20.408Z,84.29
2023-04-10T00:19:46.941Z,83.34
2023-04-10T00:22:13.605Z,84.90
2023-04-10T00:24:40.421Z,85.44
2023-04-10T00:27:06.982Z,85.42
2023-04-10T00:29:33.736Z,86.13
2023-04-10T00:32:00.359Z,86.17
2023-04-10T00:34:27.043Z,86.35
2023-04-10T00:36:53.697Z,86.15
2023-04-10T00:39:20.572Z,85.73
2023-04-10T00:41:47.208Z,85.45
2023-04-10T00:44:13.815Z,83.88
2023-04-10T00:46:40.614Z,83.85
2023-04-10T00:49:07.507Z,84.64
2023-04-10T00:51:34.219Z,84.12
2023-04-10T00:54:02.425Z,84.14
2023-04-10T00:56:34.087Z,84.68
2023-04-10T00:59:00.790Z,85.69
2023-04-10T01:01:27.468Z,86.54
2023-04-10T01:03:55.239Z,86.51
2023-04-10T01:06:56.118Z,86.89
2023-04-10T01:09:29.938Z,87.08
2023-04-10T01:12:18.247Z,86.92
2023-04-10T01:15:32.601Z,86.92
2023-04-10T01:18:07.693Z,87.08
2023-04-10T01:20:38.009Z,86.70
2023-04-10T01:23:22.592Z,85.89
2023-04-10T01:26:10.488Z,85.06
2023-04-10T01:29:02.102Z,85.47
2023-04-10T01:31:37.832Z,85.82
2023-04-10T01:34:11.736Z,86.11
2023-04-10T01:36:48.942Z,86.72
2023-04-10T01:39:19.848Z,87.18
2023-04-10T01:41:51.320Z,86.65
2023-04-10T01:44:20.072Z,86.87
2023-04-10T01:46:49.340Z,86.26
2023-04-10T01:49:17.979Z,86.21
2023-04-10T01:51:46.468Z,86.66
2023-04-10T01:54:13.786Z,86.45
2023-04-10T01:56:41.811Z,86.76
2023-04-10T01:59:08.713Z,87.19
2023-04-10T02:01:35.435Z,87.14
2023-04-10T02:04:02.437Z,86.09
2023-04-10T02:06:49.841Z,85.40
2023-04-10T02:09:26.801Z,85.83
2023-04-10T02:12:04.368Z,85.82
2023-04-10T02:14:32.713Z,86.34
2023-04-10T02:17:01.473Z,85.65
2023-04-10T02:19:28.851Z,86.34
2023-04-10T02:21:57.003Z,86.66
2023-04-10T02:24:23.861Z,86.35
2023-04-10T02:26:52.442Z,86.55
2023-04-10T02:29:19.810Z,86.37
2023-04-10T02:31:47.301Z,87.04
2023-04-10T02:34:14.148Z,86.55
2023-04-10T02:36:40.824Z,86.86
2023-04-10T02:39:08.330Z,86.24
2023-04-10T02:41:35.084Z,86.50
2023-04-10T02:44:01.838Z,86.02
2023-04-10T02:46:28.559Z,85.73
2023-04-10T02:48:55.453Z,86.71
2023-04-10T02:51:22.102Z,87.47
2023-04-10T02:53:48.811Z,88.02
2023-04-10T02:56:15.537Z,88.21
2023-04-10T02:58:45.560Z,87.85
2023-04-10T03:01:13.948Z,87.89
2023-04-10T03:03:41.038Z,87.44
2023-04-10T03:06:09.550Z,87.24
2023-04-10T03:08:36.401Z,87.37
2023-04-10T03:11:03.091Z,86.87
2023-04-10T03:13:29.761Z,86.21
2023-04-10T03:15:56.488Z,86.59
2023-04-10T03:18:23.274Z,87.10
2023-04-10T03:20:50.883Z,87.70
2023-04-10T03:23:17.630Z,87.88
2023-04-10T03:25:44.334Z,88.12
2023-04-10T03:28:11.178Z,88.37
2023-04-10T03:30:37.834Z,88.09
2023-04-10T03:33:04.485Z,88.16
2023-04-10T03:35:31.522Z,88.83
2023-04-10T03:38:27.656Z,88.87
2023-04-10T03:41:00.783Z,88.73
2023-04-10T03:43:27.460Z,88.88
2023-04-10T03:45:54.062Z,88.83
2023-04-10T03:48:20.939Z,88.95
2023-04-10T03:50:47.808Z,89.18
2023-04-10T03:53:14.479Z,89.28
2023-04-10T03:55:41.238Z,89.76
2023-04-10T03:58:08.327Z,89.64
2023-04-10T04:00:35.204Z,89.61
2023-04-10T04:03:05.105Z,89.77
2023-04-10T04:05:32.342Z,89.46
2023-04-10T04:07:59.043Z,89.74
2023-04-10T04:10:25.821Z,89.70
2023-04-10T04:12:52.495Z,88.60
2023-04-10T04:15:19.143Z,88.48
2023-04-10T04:17:46.779Z,87.97
2023-04-10T04:20:13.496Z,87.73
2023-04-10T04:22:40.138Z,87.24
2023-04-10T04:25:10.850Z,86.94
2023-04-10T04:27:37.780Z,87.37
2023-04-10T04:30:05.174Z,87.26
2023-04-10T04:32:31.869Z,87.04
2023-04-10T04:34:58.478Z,86.76
2023-04-10T04:37:25.157Z,86.41
2023-04-10T04:39:51.803Z,85.92
2023-04-10T04:42:18.484Z,86.06
2023-04-10T04:44:45.442Z,86.08
2023-04-10T04:47:12.058Z,85.71
2023-04-10T04:49:38.715Z,85.26
2023-04-10T04:52:05.651Z,85.48
2023-04-10T04:54:32.234Z,85.12
2023-04-10T04:56:58.845Z,85.15
2023-04-10T04:59:25.538Z,84.88
2023-04-10T05:01:52.281Z,84.63
2023-04-10T05:04:20.747Z,85.25
2023-04-10T05:06:47.413Z,84.99
2023-04-10T05:09:14.168Z,84.34
2023-04-10T05:11:41.085Z,85.01
2023-04-10T05:14:07.874Z,85.08
2023-04-10T05:16:34.575Z,84.42
2023-04-10T05:19:10.634Z,84.50
2023-04-10T05:21:38.228Z,84.14
2023-04-10T05:24:05.087Z,84.14
2023-04-10T05:26:31.812Z,84.57
2023-04-10T05:28:58.440Z,84.21
2023-04-10T05:31:25.396Z,84.12
2023-04-10T05:33:51.996Z,84.03
2023-04-10T05:36:18.703Z,83.74
2023-04-10T05:38:45.404Z,84.01
2023-04-10T05:41:12.005Z,83.89
2023-04-10T05:43:38.632Z,83.75
2023-04-10T05:46:05.682Z,83.95
2023-04-10T05:48:32.347Z,83.59
2023-04-10T05:50:59.044Z,83.42
2023-04-10T05:53:33.011Z,83.02
2023-04-10T05:55:59.848Z,82.64
2023-04-10T05:58:27.234Z,82.95
2023-04-10T06:00:54.447Z,82.79
2023-04-10T06:03:21.653Z,82.72
2023-04-10T06:05:48.491Z,82.20
2023-04-10T06:08:15.173Z,81.96
2023-04-10T06:10:41.824Z,81.47
2023-04-10T06:13:10.636Z,81.31
2023-04-10T06:15:38.240Z,81.11
2023-04-10T06:18:05.072Z,80.75
2023-04-10T06:20:31.775Z,80.25
2023-04-10T06:22:59.144Z,79.62
2023-04-10T06:25:26.712Z,79.76
2023-04-10T06:27:53.477Z,79.37
2023-04-10T06:30:20.306Z,79.10
2023-04-10T06:32:47.014Z,79.17
2023-04-10T06:35:13.821Z,78.86
2023-04-10T06:37:42.320Z,78.63
2023-04-10T06:40:11.346Z,78.26
2023-04-10T06:42:38.368Z,78.09
2023-04-10T06:45:05.566Z,77.76
2023-04-10T06:47:32.289Z,77.15
2023-04-10T06:49:59.143Z,77.48
2023-04-10T06:52:26.574Z,77.07
2023-04-10T06:54:53.208Z,76.46
2023-04-10T06:57:28.940Z,76.43
2023-04-10T06:59:57.431Z,76.62
2023-04-10T07:02:47.131Z,76.45
2023-04-10T07:05:42.239Z,76.13
2023-04-10T07:08:11.927Z,76.01
2023-04-10T07:10:38.456Z,75.57
2023-04-10T07:13:08.460Z,75.55
2023-04-10T07:15:39.148Z,75.40
2023-04-10T07:18:08.744Z,74.83
2023-04-10T07:20:35.692Z,74.87
2023-04-10T07:23:05.046Z,74.21
2023-04-10T07:25:31.572Z,73.26
2023-04-10T07:27:58.082Z,72.65
2023-04-10T07:30:26.255Z,72.95
2023-04-10T07:32:53.015Z,73.26
2023-04-10T07:35:20.397Z,73.07
2023-04-10T07:37:51.657Z,72.60
2023-04-10T07:40:18.213Z,72.29
2023-04-10T07:42:44.682Z,71.68
2023-04-10T07:45:11.543Z,71.83
2023-04-10T07:47:38.327Z,71.63
2023-04-10T07:50:05.161Z,70.73
2023-04-10T07:52:31.662Z,70.70
2023-04-10T07:54:58.219Z,70.65
2023-04-10T07:57:24.766Z,70.19
2023-04-10T07:59:51.254Z,70.46
2023-04-10T08:02:17.836Z,68.84
2023-04-10T08:04:44.619Z,68.66
2023-04-10T08:07:11.162Z,68.12
2023-04-10T08:09:37.728Z,67.83
2023-04-10T08:12:04.270Z,67.92
2023-04-10T08:14:32.955Z,67.71
2023-04-10T08:16:59.558Z,67.46
2023-04-10T08:19:26.167Z,66.92
2023-04-10T08:21:55.881Z,66.68
2023-04-10T08:24:23.039Z,66.34
2023-04-10T08:26:49.900Z,66.01
2023-04-10T08:29:16.416Z,64.25
2023-04-10T08:31:42.995Z,62.91
2023-04-10T08:34:09.513Z,62.15
2023-04-10T08:36:36.085Z,62.07
2023-04-10T08:39:02.665Z,61.69
2023-04-10T08:41:29.848Z,61.61
2023-04-10T08:43:57.314Z,61.94
2023-04-10T08:46:26.202Z,61.76
2023-04-10T08:49:02.728Z,61.68
2023-04-10T08:51:33.081Z,60.85
2023-04-10T08:54:05.855Z,60.56
2023-04-10T08:56:33.305Z,59.96
2023-04-10T08:59:01.523Z,59.30
2023-04-10T09:01:28.105Z,58.27
2023-04-10T09:03:55.136Z,58.02
2023-04-10T09:06:21.843Z,57.27
2023-04-10T09:08:48.322Z,56.87
2023-04-10T09:11:14.793Z,56.58
2023-04-10T09:13:42.308Z,56.94
2023-04-10T09:16:09.711Z,56.82
2023-04-10T09:18:45.512Z,56.18
2023-04-10T09:21:13.084Z,55.59
2023-04-10T09:23:39.698Z,55.26
2023-04-10T09:26:32.789Z,54.77
2023-04-10T09:29:02.194Z,54.76
2023-04-10T09:31:29.418Z,54.15
2023-04-10T09:34:21.108Z,53.95
2023-04-10T09:36:55.306Z,54.51
2023-04-10T09:39:21.981Z,53.99
2023-04-10T09:41:49.842Z,51.89
2023-04-10T09:44:17.497Z,52.38
2023-04-10T09:46:44.096Z,51.04
2023-04-10T09:49:10.729Z,50.67
2023-04-10T09:51:37.531Z,49.21
2023-04-10T09:54:04.194Z,49.53
2023-04-10T09:56:31.361Z,49.95
2023-04-10T09:59:02.002Z,49.28
2023-04-10T10:01:29.957Z,49.20
2023-04-10T10:04:01.976Z,49.06
2023-04-10T10:06:29.563Z,49.01
2023-04-10T10:08:56.352Z,48.70
2023-04-10T10:11:24.852Z,48.79
2023-04-10T10:13:57.071Z,48.54
2023-04-10T10:16:23.607Z,47.72
2023-04-10T10:18:56.644Z,47.04
2023-04-10T10:21:23.923Z,46.62
2023-04-10T10:23:54.105Z,45.17
2023-04-10T10:26:23.860Z,44.60
2023-04-10T10:28:53.928Z,44.28
2023-04-10T10:31:22.616Z,43.95
2023-04-10T10:33:52.090Z,43.56
2023-04-10T10:36:20.159Z,43.87
2023-04-10T10:39:09.710Z,44.05
2023-04-10T10:41:43.691Z,43.04
2023-04-10T10:44:13.218Z,42.53
2023-04-10T10:46:42.632Z,42.27
2023-04-10T10:49:09.238Z,41.19
2023-04-10T10:51:46.621Z,41.12
2023-04-10T10:54:29.592Z,41.43
2023-04-10T10:56:56.132Z,41.20
2023-04-10T10:59:41.173Z,40.98
2023-04-10T11:02:26.335Z,40.35
2023-04-10T11:04:52.970Z,38.66
2023-04-10T11:07:19.729Z,39.30
2023-04-10T11:09:49.871Z,39.62
2023-04-10T11:12:17.074Z,39.74
2023-04-10T11:14:44.479Z,39.20
2023-04-10T11:17:11.671Z,39.03
2023-04-10T11:19:56.750Z,39.31
2023-04-10T11:22:23.326Z,39.38
2023-04-10T11:24:57.880Z,39.14
2023-04-10T11:27:45.083Z,39.54
2023-04-10T11:30:31.436Z,39.31
2023-04-10T11:32:58.597Z,39.16
2023-04-10T11:35:25.938Z,39.19
2023-04-10T11:37:53.058Z,38.79
2023-04-10T11:40:19.558Z,38.95
2023-04-10T11:42:48.287Z,38.75
2023-04-10T11:45:28.270Z,38.85
2023-04-10T11:47:57.999Z,38.44
2023-04-10T11:50:29.677Z,38.48
2023-04-10T11:52:56.697Z,38.33
2023-04-10T11:55:36.018Z,38.12
2023-04-10T11:58:02.995Z,37.81
2023-04-10T12:00:29.567Z,38.55
2023-04-10T12:02:56.305Z,38.83
2023-04-10T12:05:22.935Z,38.48
2023-04-10T12:07:49.965Z,38.83
2023-04-10T12:10:16.823Z,38.85
2023-04-10T12:12:43.290Z,38.68
2023-04-10T12:15:28.656Z,38.30
2023-04-10T12:17:55.676Z,38.27
2023-04-10T12:20:26.569Z,38.11
2023-04-10T12:22:55.513Z,38.39
2023-04-10T12:25:22.013Z,38.71
2023-04-10T12:27:50.510Z,38.94
2023-04-10T12:30:17.078Z,38.71
2023-04-10T12:32:50.796Z,38.37
2023-04-10T12:35:17.358Z,38.14
2023-04-10T12:37:50.458Z,38.01
2023-04-10T12:40:17.573Z,37.42
2023-04-10T12:42:44.216Z,37.38
2023-04-10T12:45:13.920Z,37.73
2023-04-10T12:47:46.109Z,37.59
2023-04-10T12:50:16.835Z,37.54
2023-04-10T12:52:44.992Z,37.25
2023-04-10T12:55:18.254Z,37.06
2023-04-10T12:57:46.221Z,35.93
2023-04-10T13:00:17.159Z,36.36
2023-04-10T13:02:44.114Z,36.29
2023-04-10T13:05:11.435Z,35.53
2023-04-10T13:07:38.535Z,35.68
2023-04-10T13:10:05.996Z,35.68
2023-04-10T13:12:35.279Z,35.00
2023-04-10T13:15:02.045Z,34.95
2023-04-10T13:17:28.821Z,34.73
2023-04-10T13:19:55.482Z,34.54
2023-04-10T13:22:22.101Z,34.56
2023-04-10T13:24:48.595Z,34.44
2023-04-10T13:27:15.097Z,34.22
2023-04-10T13:29:42.101Z,34.21
2023-04-10T13:32:08.745Z,34.01
2023-04-10T13:34:35.598Z,35.48
2023-04-10T13:37:02.258Z,35.14
2023-04-10T13:39:29.892Z,35.23
2023-04-10T13:41:56.941Z,34.56
2023-04-10T13:44:23.529Z,33.98
2023-04-10T13:46:50.473Z,33.36
2023-04-10T13:49:17.943Z,32.61
2023-04-10T13:51:50.262Z,33.21
2023-04-10T13:54:20.126Z,33.97
2023-04-10T13:56:46.948Z,34.21
2023-04-10T13:59:13.689Z,34.91
2023-04-10T14:01:40.339Z,35.53
2023-04-10T14:04:07.048Z,36.27
2023-04-10T14:06:33.761Z,37.03
2023-04-10T14:09:00.252Z,36.79
2023-04-10T14:11:26.817Z,36.58
2023-04-10T14:13:53.387Z,36.97
2023-04-10T14:16:19.957Z,37.04
2023-04-10T14:18:46.489Z,37.72
2023-04-10T14:21:13.100Z,37.87
2023-04-10T14:23:40.945Z,38.43
2023-04-10T14:26:07.534Z,38.54
2023-04-10T14:28:34.203Z,38.66
2023-04-10T14:31:00.996Z,38.55
2023-04-10T14:33:27.569Z,38.02
2023-04-10T14:35:54.809Z,37.84
2023-04-10T14:38:21.302Z,37.95
2023-04-10T14:40:50.079Z,38.20
2023-04-10T14:43:16.962Z,38.46
2023-04-10T14:45:43.586Z,38.75
2023-04-10T14:48:11.170Z,39.13
2023-04-10T14:50:37.771Z,39.35
2023-04-10T14:53:06.105Z,39.04
2023-04-10T14:55:32.690Z,38.70
2023-04-10T14:57:59.186Z,38.18
2023-04-10T15:00:25.744Z,38.58
2023-04-10T15:02:52.554Z,38.53
2023-04-10T15:05:19.312Z,38.41
2023-04-10T15:07:45.926Z,38.91
2023-04-10T15:10:12.590Z,38.78
2023-04-10T15:12:39.229Z,38.34
2023-04-10T15:15:06.239Z,39.01
2023-04-10T15:17:33.382Z,39.65
2023-04-10T15:19:59.872Z,39.01
2023-04-10T15:22:26.670Z,38.82
2023-04-10T15:24:53.242Z,38.59
2023-04-10T15:27:21.233Z,38.83
2023-04-10T15:29:47.913Z,39.23
2023-04-10T15:32:14.466Z,39.44
2023-04-10T15:34:40.958Z,39.57
2023-04-10T15:37:07.483Z,39.34
2023-04-10T15:39:33.997Z,39.38
2023-04-10T15:42:00.551Z,38.16
2023-04-10T15:44:27.148Z,34.07
2023-04-10T15:46:53.709Z,37.32
2023-04-10T15:49:29.804Z,38.41
2023-04-10T15:52:00.891Z,38.75
2023-04-10T15:54:27.426Z,38.78
2023-04-10T15:56:54.235Z,38.55
2023-04-10T15:59:20.708Z,38.63
2023-04-10T16:01:47.477Z,38.75
2023-04-10T16:04:14.155Z,38.77
2023-04-10T16:06:40.890Z,38.77
2023-04-10T16:09:22.105Z,38.94
2023-04-10T16:11:51.767Z,38.93
2023-04-10T16:14:19.118Z,36.25
2023-04-10T16:16:45.763Z,33.91
2023-04-10T16:19:12.314Z,32.41
2023-04-10T16:21:38.891Z,33.02
2023-04-10T16:24:05.592Z,34.93
2023-04-10T16:26:32.194Z,33.85
2023-04-10T16:28:58.663Z,33.21
2023-04-10T16:31:25.400Z,36.08
2023-04-10T16:33:52.034Z,37.46
2023-04-10T16:36:18.464Z,38.18
2023-04-10T16:38:45.300Z,38.95
2023-04-10T16:41:12.683Z,39.87
2023-04-10T16:43:39.300Z,40.53
2023-04-10T16:46:06.165Z,41.66
2023-04-10T16:48:34.885Z,41.76
2023-04-10T16:51:06.369Z,42.30
2023-04-10T16:53:33.648Z,43.04
2023-04-10T16:56:03.545Z,44.03
2023-04-10T16:58:31.200Z,44.48
2023-04-10T17:00:58.892Z,44.72
2023-04-10T17:03:25.772Z,45.52
2023-04-10T17:05:52.316Z,46.34
2023-04-10T17:08:18.752Z,47.63
2023-04-10T17:10:45.248Z,49.49
2023-04-10T17:13:11.790Z,50.46
2023-04-10T17:15:38.276Z,51.14
2023-04-10T17:18:04.791Z,51.16
2023-04-10T17:20:35.294Z,51.18
2023-04-10T17:23:01.861Z,50.92
2023-04-10T17:25:28.423Z,50.98
2023-04-10T17:27:54.899Z,51.39
2023-04-10T17:30:21.421Z,51.48
2023-04-10T17:32:49.432Z,51.57
2023-04-10T17:35:16.170Z,51.61
2023-04-10T17:37:42.655Z,51.29
2023-04-10T17:40:09.420Z,51.42
2023-04-10T17:42:35.969Z,52.39
2023-04-10T17:45:02.505Z,53.09
2023-04-10T17:47:29.134Z,52.64
2023-04-10T17:49:55.952Z,52.63
2023-04-10T17:52:22.518Z,52.37
2023-04-10T17:54:49.039Z,52.52
2023-04-10T17:57:15.529Z,52.45
2023-04-10T17:59:42.030Z,52.77
2023-04-10T18:02:09.971Z,52.98
2023-04-10T18:04:36.575Z,53.54
2023-04-10T18:07:03.089Z,53.63
2023-04-10T18:09:29.568Z,53.61
2023-04-10T18:11:56.107Z,53.82
2023-04-10T18:14:22.570Z,53.89
2023-04-10T18:16:49.275Z,54.14
2023-04-10T18:19:15.729Z,54.79
2023-04-10T18:21:42.221Z,54.92
2023-04-10T18:24:11.004Z,55.30
2023-04-10T18:26:38.054Z,55.49
2023-04-10T18:29:04.570Z,55.76
2023-04-10T18:31:31.174Z,55.99
2023-04-10T18:34:07.050Z,55.95
2023-04-10T18:36:34.113Z,55.93
2023-04-10T18:39:00.646Z,55.69
2023-04-10T18:41:27.137Z,55.69
2023-04-10T18:44:01.722Z,55.96
2023-04-10T18:46:32.390Z,56.55
2023-04-10T18:49:01.408Z,56.63
2023-04-10T18:51:28.182Z,56.84
2023-04-10T18:53:55.002Z,57.32
2023-04-10T18:56:21.801Z,57.16
2023-04-10T18:58:50.008Z,57.02
2023-04-10T19:01:17.980Z,56.71
2023-04-10T19:03:47.236Z,56.92
2023-04-10T19:06:15.141Z,57.42
2023-04-10T19:08:41.600Z,57.72
2023-04-10T19:11:11.417Z,58.07
2023-04-10T19:13:38.186Z,58.44
2023-04-10T19:16:05.011Z,58.61
2023-04-10T19:18:32.203Z,59.05
2023-04-10T19:20:59.175Z,59.07
2023-04-10T19:23:26.290Z,59.12
2023-04-10T19:25:54.172Z,58.94
2023-04-10T19:28:21.179Z,58.96
2023-04-10T19:30:47.708Z,58.86
2023-04-10T19:33:14.665Z,59.51
2023-04-10T19:35:41.222Z,59.79
2023-04-10T19:38:07.859Z,60.27
2023-04-10T19:40:35.655Z,60.38
2023-04-10T19:43:02.650Z,60.02
2023-04-10T19:45:29.498Z,60.07
2023-04-10T19:47:56.527Z,60.39
2023-04-10T19:50:23.099Z,61.12
2023-04-10T19:52:49.809Z,62.10
2023-04-10T19:55:18.753Z,62.01
2023-04-10T19:57:45.740Z,62.37
2023-04-10T20:00:12.539Z,62.68
2023-04-10T20:02:39.342Z,62.58
2023-04-10T20:05:06.355Z,62.74
2023-04-10T20:07:32.895Z,62.60
2023-04-10T20:10:02.632Z,62.53
2023-04-10T20:12:30.220Z,62.63
2023-04-10T20:14:56.704Z,62.51
2023-04-10T20:17:23.331Z,62.64
2023-04-10T20:19:49.949Z,62.46
2023-04-10T20:22:16.474Z,62.01
2023-04-10T20:24:43.058Z,61.73
2023-04-10T20:27:09.512Z,61.95
2023-04-10T20:29:35.973Z,62.21
2023-04-10T20:32:02.614Z,62.30
2023-04-10T20:34:29.105Z,62.13
2023-04-10T20:36:55.687Z,62.13
2023-04-10T20:39:22.668Z,61.79
2023-04-10T20:41:49.190Z,62.01
2023-04-10T20:44:15.717Z,62.29
2023-04-10T20:46:42.282Z,62.48
2023-04-10T20:49:11.450Z,62.25
2023-04-10T20:51:38.458Z,62.37
2023-04-10T20:54:06.438Z,62.74
2023-04-10T20:56:40.569Z,64.89
2023-04-10T20:59:09.670Z,66.07
2023-04-10T21:01:36.492Z,65.94
2023-04-10T21:04:03.169Z,65.24
2023-04-10T21:06:29.801Z,65.33
2023-04-10T21:08:56.372Z,65.59
2023-04-10T21:11:23.094Z,65.75
2023-04-10T21:13:49.625Z,66.20
2023-04-10T21:16:16.260Z,66.34
2023-04-10T21:18:42.843Z,66.35
2023-04-10T21:21:09.346Z,65.98
2023-04-10T21:23:35.867Z,65.97
2023-04-10T21:26:02.366Z,66.40
2023-04-10T21:28:28.876Z,66.17
2023-04-10T21:30:55.393Z,66.22
2023-04-10T21:33:21.884Z,66.57
2023-04-10T21:35:51.217Z,67.05
2023-04-10T21:38:17.767Z,67.56
2023-04-10T21:40:54.219Z,67.27
2023-04-10T21:43:21.395Z,67.80
2023-04-10T21:45:47.947Z,68.49
2023-04-10T21:48:14.479Z,69.71
2023-04-10T21:50:41.106Z,69.00
2023-04-10T21:53:07.763Z,70.07
2023-04-10T21:55:34.354Z,69.52
2023-04-10T21:58:00.867Z,69.45
2023-04-10T22:00:28.848Z,69.87
2023-04-10T22:02:55.971Z,70.87
2023-04-10T22:05:24.372Z,71.67
2023-04-10T22:07:51.102Z,71.87
2023-04-10T22:10:17.722Z,71.80
2023-04-10T22:12:45.920Z,71.18
2023-04-10T22:15:14.519Z,70.93
2023-04-10T22:17:41.188Z,71.27
2023-04-10T22:20:07.924Z,71.85
2023-04-10T22:22:34.366Z,71.63
2023-04-10T22:25:00.872Z,72.10
2023-04-10T22:27:27.387Z,72.03
2023-04-10T22:30:03.263Z,72.20
2023-04-10T22:32:31.020Z,71.91
2023-04-10T22:34:58.626Z,73.23
2023-04-10T22:37:25.285Z,73.64
2023-04-10T22:39:52.054Z,73.46
2023-04-10T22:42:18.696Z,73.70
2023-04-10T22:44:45.591Z,73.77
2023-04-10T22:47:12.284Z,74.30
2023-04-10T22:49:39.027Z,74.01
2023-04-10T22:52:05.765Z,73.97
2023-04-10T22:54:32.439Z,74.05
2023-04-10T22:56:59.050Z,73.91
2023-04-10T22:59:25.778Z,74.64
2023-04-10T23:01:52.478Z,74.74
2023-04-10T23:04:19.233Z,75.31
2023-04-10T23:06:45.932Z,74.57
2023-04-10T23:09:12.833Z,74.22
2023-04-10T23:11:39.524Z,73.81
2023-04-10T23:14:06.230Z,73.81
2023-04-10T23:16:32.956Z,74.04
2023-04-10T23:18:59.691Z,74.54
2023-04-10T23:21:27.343Z,74.43
2023-04-10T23:23:54.027Z,74.58
2023-04-10T23:26:20.905Z,74.46
2023-04-10T23:28:47.749Z,74.58
2023-04-10T23:31:14.636Z,74.62
2023-04-10T23:33:41.612Z,74.63
2023-04-10T23:36:08.590Z,74.65
2023-04-10T23:38:35.187Z,75.45
2023-04-10T23:41:03.023Z,74.86
2023-04-10T23:43:29.740Z,75.00
2023-04-10T23:45:56.457Z,74.64
2023-04-10T23:48:23.161Z,74.82
2023-04-10T23:50:49.789Z,74.34
2023-04-10T23:53:16.666Z,76.07
2023-04-10T23:55:43.487Z,76.33
2023-04-10T23:58:10.596Z,75.96
